createdAt,value
2023-02-06T00:01:15.716Z,5.10
2023-02-06T00:03:42.677Z,5.00
2023-02-06T00:06:09.643Z,5.00
2023-02-06T00:08:36.522Z,5.00
2023-02-06T00:11:04.973Z,5.00
2023-02-06T00:13:31.889Z,5.00
2023-02-06T00:15:58.820Z,5.10
2023-02-06T00:18:26.068Z,5.00
2023-02-06T00:20:52.961Z,5.00
2023-02-06T00:23:20.104Z,5.00
2023-02-06T00:25:47.055Z,5.10
2023-02-06T00:28:14.101Z,5.10
2023-02-06T00:30:41.199Z,5.00
2023-02-06T00:33:08.058Z,5.00
2023-02-06T00:35:35.180Z,5.00
2023-02-06T00:38:02.598Z,5.00
2023-02-06T00:40:30.086Z,4.90
2023-02-06T00:42:56.998Z,4.90
2023-02-06T00:45:23.947Z,4.90
2023-02-06T00:47:50.840Z,4.90
2023-02-06T00:50:18.000Z,4.90
2023-02-06T00:52:45.303Z,4.90
2023-02-06T00:55:12.281Z,4.90
2023-02-06T00:57:39.176Z,4.90
2023-02-06T01:00:07.438Z,4.90
2023-02-06T01:02:34.890Z,4.90
2023-02-06T01:05:02.448Z,4.90
2023-02-06T01:07:29.350Z,4.90
2023-02-06T01:09:56.247Z,4.90
2023-02-06T01:12:23.191Z,4.90
2023-02-06T01:14:50.115Z,4.80
2023-02-06T01:17:17.107Z,4.70
2023-02-06T01:19:44.004Z,4.60
2023-02-06T01:22:10.954Z,4.60
2023-02-06T01:24:37.999Z,4.60
2023-02-06T01:27:04.913Z,4.60
2023-02-06T01:29:31.785Z,4.60
2023-02-06T01:31:58.650Z,4.60
2023-02-06T01:34:25.621Z,4.60
2023-02-06T01:36:52.553Z,4.50
2023-02-06T01:39:19.944Z,4.50
2023-02-06T01:41:46.910Z,4.50
2023-02-06T01:44:18.649Z,4.60
2023-02-06T01:46:47.030Z,4.60
2023-02-06T01:49:17.472Z,4.70
2023-02-06T01:51:44.898Z,4.70
2023-02-06T01:54:12.663Z,4.70
2023-02-06T01:56:41.907Z,4.70
2023-02-06T01:59:09.028Z,4.70
2023-02-06T02:01:35.992Z,4.70
2023-02-06T02:04:06.057Z,4.70
2023-02-06T02:06:33.605Z,4.70
2023-02-06T02:09:01.369Z,4.70
2023-02-06T02:11:38.296Z,4.70
2023-02-06T02:14:07.492Z,4.70
2023-02-06T02:17:12.965Z,4.70
2023-02-06T02:19:39.893Z,4.60
2023-02-06T02:22:23.150Z,4.50
2023-02-06T02:24:53.046Z,4.60
2023-02-06T02:27:39.452Z,4.60
2023-02-06T02:30:21.580Z,4.60
2023-02-06T02:32:57.252Z,4.60
2023-02-06T02:35:27.509Z,4.70
2023-02-06T02:38:06.355Z,4.70
2023-02-06T02:40:33.475Z,4.70
2023-02-06T02:43:09.377Z,4.70
2023-02-06T02:45:54.987Z,4.70
2023-02-06T02:48:25.472Z,4.70
2023-02-06T02:50:53.681Z,4.80
2023-02-06T02:53:21.055Z,4.70
2023-02-06T02:55:48.227Z,4.70
2023-02-06T02:58:16.820Z,4.70
2023-02-06T03:00:45.950Z,4.80
2023-02-06T03:03:14.698Z,4.80
2023-02-06T03:05:46.964Z,4.80
2023-02-06T03:08:25.962Z,4.90
2023-02-06T03:10:59.107Z,4.90
2023-02-06T03:13:36.631Z,5.00
2023-02-06T03:16:11.725Z,5.00
2023-02-06T03:18:41.447Z,4.90
2023-02-06T03:21:09.918Z,4.90
2023-02-06T03:23:38.478Z,4.90
2023-02-06T03:26:07.027Z,4.90
2023-02-06T03:28:39.246Z,4.90
2023-02-06T03:31:07.945Z,4.90
2023-02-06T03:33:40.779Z,4.90
2023-02-06T03:36:10.171Z,4.80
2023-02-06T03:38:37.173Z,4.80
2023-02-06T03:41:04.618Z,4.80
2023-02-06T03:43:32.238Z,4.80
2023-02-06T03:46:01.213Z,4.80
2023-02-06T03:48:31.948Z,4.70
2023-02-06T03:51:00.429Z,4.70
2023-02-06T03:53:27.570Z,4.60
2023-02-06T03:55:56.005Z,4.60
2023-02-06T03:58:24.557Z,4.60
2023-02-06T04:00:51.938Z,4.50
2023-02-06T04:03:20.226Z,4.50
2023-02-06T04:05:47.209Z,4.40
2023-02-06T04:08:14.072Z,4.40
2023-02-06T04:10:40.939Z,4.40
2023-02-06T04:13:07.883Z,4.40
2023-02-06T04:15:35.226Z,4.30
2023-02-06T04:18:03.135Z,4.30
2023-02-06T04:20:30.540Z,4.20
2023-02-06T04:22:58.290Z,4.20
2023-02-06T04:25:25.917Z,4.10
2023-02-06T04:27:52.848Z,4.00
2023-02-06T04:30:20.308Z,4.00
2023-02-06T04:32:47.306Z,3.90
2023-02-06T04:35:14.260Z,3.90
2023-02-06T04:37:41.147Z,3.90
2023-02-06T04:40:08.322Z,3.90
2023-02-06T04:42:35.406Z,3.80
2023-02-06T04:45:02.325Z,3.80
2023-02-06T04:47:29.254Z,3.80
2023-02-06T04:49:56.204Z,3.80
2023-02-06T04:52:23.139Z,3.80
2023-02-06T04:54:49.983Z,3.80
2023-02-06T04:57:16.960Z,3.80
2023-02-06T04:59:43.879Z,3.80
2023-02-06T05:02:10.775Z,3.70
2023-02-06T05:04:39.120Z,3.80
2023-02-06T05:07:06.322Z,3.70
2023-02-06T05:09:33.393Z,3.70
2023-02-06T05:12:00.386Z,3.80
2023-02-06T05:14:27.355Z,3.70
2023-02-06T05:16:54.243Z,3.70
2023-02-06T05:19:21.364Z,3.60
2023-02-06T05:21:48.192Z,3.50
2023-02-06T05:24:15.100Z,3.40
2023-02-06T05:26:42.080Z,3.40
2023-02-06T05:29:09.280Z,3.40
2023-02-06T05:31:36.444Z,3.30
2023-02-06T05:34:03.477Z,3.30
2023-02-06T05:36:30.405Z,3.20
2023-02-06T05:38:57.317Z,3.20
2023-02-06T05:41:24.374Z,3.10
2023-02-06T05:43:51.400Z,3.00
2023-02-06T05:46:19.718Z,2.90
2023-02-06T05:48:46.691Z,2.80
2023-02-06T05:51:14.002Z,2.80
2023-02-06T05:53:40.882Z,2.70
2023-02-06T05:56:07.822Z,2.60
2023-02-06T05:58:34.784Z,2.50
2023-02-06T06:01:01.870Z,2.40
2023-02-06T06:03:28.821Z,2.50
2023-02-06T06:05:55.760Z,2.50
2023-02-06T06:08:23.009Z,2.50
2023-02-06T06:10:50.593Z,2.50
2023-02-06T06:13:17.611Z,2.50
2023-02-06T06:15:44.641Z,2.50
2023-02-06T06:18:12.126Z,2.50
2023-02-06T06:20:39.062Z,2.50
2023-02-06T06:23:05.989Z,2.50
2023-02-06T06:25:33.767Z,2.50
2023-02-06T06:28:01.001Z,2.50
2023-02-06T06:30:27.955Z,2.50
2023-02-06T06:32:54.938Z,2.50
2023-02-06T06:35:21.926Z,2.50
2023-02-06T06:37:48.813Z,2.50
2023-02-06T06:40:15.794Z,2.50
2023-02-06T06:42:42.843Z,2.40
2023-02-06T06:45:10.141Z,2.40
2023-02-06T06:47:36.992Z,2.40
2023-02-06T06:50:04.293Z,2.40
2023-02-06T06:52:31.181Z,2.30
2023-02-06T06:54:58.124Z,2.30
2023-02-06T06:57:25.064Z,2.30
2023-02-06T06:59:52.222Z,2.30
2023-02-06T07:02:19.153Z,2.40
2023-02-06T07:04:46.053Z,2.40
2023-02-06T07:07:13.011Z,2.50
2023-02-06T07:09:41.351Z,2.50
2023-02-06T07:12:08.279Z,2.50
2023-02-06T07:14:35.163Z,2.50
2023-02-06T07:17:02.145Z,2.50
2023-02-06T07:19:29.074Z,2.50
2023-02-06T07:21:56.009Z,2.50
2023-02-06T07:24:22.893Z,2.60
2023-02-06T07:26:49.820Z,2.60
2023-02-06T07:29:16.740Z,2.60
2023-02-06T07:31:43.955Z,2.60
2023-02-06T07:34:11.638Z,2.60
2023-02-06T07:36:38.936Z,2.60
2023-02-06T07:39:05.868Z,2.60
2023-02-06T07:41:32.764Z,2.60
2023-02-06T07:43:59.741Z,2.70
2023-02-06T07:46:26.867Z,2.70
2023-02-06T07:48:54.073Z,2.70
2023-02-06T07:51:21.667Z,2.70
2023-02-06T07:53:48.801Z,2.70
2023-02-06T07:56:17.837Z,2.80
2023-02-06T07:58:44.992Z,2.80
2023-02-06T08:03:57.730Z,2.90
2023-02-06T08:09:11.486Z,3.00
2023-02-06T08:11:38.958Z,3.10
2023-02-06T08:22:11.862Z,3.20
2023-02-06T08:24:38.804Z,3.20
2023-02-06T08:29:48.493Z,3.30
2023-02-06T08:32:15.608Z,3.40
2023-02-06T08:34:42.463Z,3.50
2023-02-06T08:37:09.520Z,3.60
2023-02-06T08:39:36.659Z,3.60
2023-02-06T08:42:04.052Z,3.60
2023-02-06T08:44:31.038Z,3.70
2023-02-06T08:47:09.197Z,3.80
2023-02-06T08:49:36.742Z,3.90
2023-02-06T08:52:03.780Z,3.90
2023-02-06T08:54:32.185Z,4.00
2023-02-06T08:57:01.326Z,4.00
2023-02-06T08:59:29.633Z,4.10
2023-02-06T09:01:56.577Z,4.10
2023-02-06T09:04:23.509Z,4.20
2023-02-06T09:06:52.335Z,4.30
2023-02-06T09:09:19.491Z,4.40
2023-02-06T09:11:46.402Z,4.40
2023-02-06T09:14:14.550Z,4.40
2023-02-06T09:16:41.495Z,4.40
2023-02-06T09:19:08.841Z,4.60
2023-02-06T09:21:36.403Z,4.60
2023-02-06T09:24:05.298Z,4.70
2023-02-06T09:26:40.573Z,4.80
2023-02-06T09:29:12.040Z,4.80
2023-02-06T09:31:40.548Z,4.90
2023-02-06T09:34:08.177Z,5.00
2023-02-06T09:36:35.363Z,5.00
2023-02-06T09:39:04.164Z,5.00
2023-02-06T09:41:44.015Z,5.20
2023-02-06T09:44:10.858Z,5.20
2023-02-06T09:46:42.560Z,5.30
2023-02-06T09:49:14.319Z,5.40
2023-02-06T09:51:44.288Z,5.40
2023-02-06T09:54:11.147Z,5.50
2023-02-06T09:57:04.488Z,5.50
2023-02-06T09:59:34.425Z,5.70
2023-02-06T10:02:18.854Z,5.80
2023-02-06T10:04:57.579Z,5.80
2023-02-06T10:07:24.437Z,5.90
2023-02-06T10:09:58.555Z,5.90
2023-02-06T10:12:35.590Z,6.00
2023-02-06T10:15:11.788Z,6.10
2023-02-06T10:17:45.629Z,6.20
2023-02-06T10:20:16.927Z,6.30
2023-02-06T10:22:49.504Z,6.40
2023-02-06T10:25:25.249Z,6.50
2023-02-06T10:27:54.993Z,6.60
2023-02-06T10:30:28.636Z,6.70
2023-02-06T10:33:01.557Z,6.70
2023-02-06T10:35:31.577Z,6.80
2023-02-06T10:38:25.241Z,6.80
2023-02-06T10:40:52.070Z,6.90
2023-02-06T10:43:34.313Z,7.10
2023-02-06T10:46:04.294Z,7.20
2023-02-06T10:48:40.375Z,7.40
2023-02-06T10:51:16.494Z,7.50
2023-02-06T10:53:49.102Z,7.50
2023-02-06T10:56:18.297Z,7.50
2023-02-06T10:58:54.244Z,7.60
2023-02-06T11:01:26.419Z,7.70
2023-02-06T11:04:02.976Z,7.90
2023-02-06T11:06:30.447Z,8.00
2023-02-06T11:08:57.708Z,8.10
2023-02-06T11:14:23.635Z,8.10
2023-02-06T11:16:51.606Z,8.10
2023-02-06T11:19:26.558Z,8.20
2023-02-06T11:22:07.986Z,8.20
2023-02-06T11:24:35.242Z,8.10
2023-02-06T11:27:04.258Z,8.10
2023-02-06T11:29:32.720Z,8.00
2023-02-06T11:32:00.702Z,8.10
2023-02-06T11:34:29.699Z,8.20
2023-02-06T11:36:58.044Z,8.30
2023-02-06T11:39:30.845Z,8.30
2023-02-06T11:42:02.400Z,8.40
2023-02-06T11:44:35.333Z,8.50
2023-02-06T11:47:20.857Z,8.60
2023-02-06T11:49:48.009Z,8.60
2023-02-06T11:52:27.750Z,8.60
2023-02-06T11:54:55.096Z,8.50
2023-02-06T11:57:25.556Z,8.50
2023-02-06T11:59:56.473Z,8.60
2023-02-06T12:02:29.905Z,8.60
2023-02-06T12:05:17.194Z,8.70
2023-02-06T12:07:52.481Z,8.60
2023-02-06T12:10:20.490Z,8.70
2023-02-06T12:12:50.218Z,8.80
2023-02-06T12:15:43.539Z,8.90
2023-02-06T12:18:09.913Z,9.10
2023-02-06T12:20:47.507Z,9.30
2023-02-06T12:23:17.435Z,9.30
2023-02-06T12:25:47.643Z,9.40
2023-02-06T12:28:33.514Z,9.60
2023-02-06T12:31:13.144Z,9.60
2023-02-06T12:33:48.141Z,9.60
2023-02-06T12:36:17.732Z,9.50
2023-02-06T12:38:50.852Z,9.60
2023-02-06T12:41:39.223Z,9.80
2023-02-06T12:44:09.434Z,10.00
2023-02-06T12:46:36.672Z,10.20
2023-02-06T12:49:15.911Z,10.40
2023-02-06T12:51:51.091Z,10.50
2023-02-06T12:54:21.652Z,10.70
2023-02-06T12:56:51.091Z,10.90
2023-02-06T12:59:41.599Z,11.00
2023-02-06T13:02:32.081Z,11.00
2023-02-06T13:05:04.199Z,11.10
2023-02-06T13:07:33.956Z,11.10
2023-02-06T13:10:05.076Z,11.10
2023-02-06T13:12:32.664Z,11.30
2023-02-06T13:15:02.183Z,11.50
2023-02-06T13:17:48.058Z,11.70
2023-02-06T13:20:19.013Z,11.80
2023-02-06T13:22:54.037Z,12.00
2023-02-06T13:25:30.233Z,12.00
2023-02-06T13:27:57.144Z,12.00
2023-02-06T13:30:24.121Z,12.10
2023-02-06T13:32:51.436Z,12.20
2023-02-06T13:35:21.072Z,12.00
2023-02-06T13:37:48.825Z,12.00
2023-02-06T13:40:21.998Z,12.00
2023-02-06T13:42:51.936Z,12.10
2023-02-06T13:45:21.628Z,12.20
2023-02-06T13:47:51.530Z,12.20
2023-02-06T13:50:33.815Z,12.30
2023-02-06T13:53:24.026Z,12.40
2023-02-06T13:55:54.052Z,12.30
2023-02-06T13:58:32.591Z,12.40
2023-02-06T14:01:00.374Z,12.50
2023-02-06T14:03:31.774Z,12.30
2023-02-06T14:05:58.607Z,12.20
2023-02-06T14:08:28.536Z,12.20
2023-02-06T14:10:58.450Z,12.30
2023-02-06T14:13:25.393Z,12.50
2023-02-06T14:15:52.360Z,12.60
2023-02-06T14:18:39.990Z,12.80
2023-02-06T14:21:28.606Z,12.70
2023-02-06T14:24:14.556Z,12.60
2023-02-06T14:26:41.439Z,12.30
2023-02-06T14:29:27.105Z,12.10
2023-02-06T14:31:53.980Z,12.00
2023-02-06T14:34:31.767Z,11.70
2023-02-06T14:37:13.954Z,11.40
2023-02-06T14:39:49.258Z,11.30
2023-02-06T14:42:22.488Z,11.20
2023-02-06T14:45:00.997Z,11.00
2023-02-06T14:47:29.378Z,10.80
2023-02-06T14:49:58.060Z,10.70
2023-02-06T14:52:27.391Z,10.70
2023-02-06T14:54:54.314Z,10.80
2023-02-06T14:57:31.520Z,10.80
2023-02-06T15:00:04.561Z,10.70
2023-02-06T15:02:35.999Z,10.70
2023-02-06T15:05:03.559Z,10.60
2023-02-06T15:07:35.138Z,10.70
2023-02-06T15:10:07.925Z,10.70
2023-02-06T15:12:35.292Z,10.70
2023-02-06T15:15:19.229Z,10.60
2023-02-06T15:17:56.168Z,10.60
2023-02-06T15:20:32.254Z,10.50
2023-02-06T15:23:16.585Z,10.50
2023-02-06T15:25:57.118Z,10.40
2023-02-06T15:28:27.963Z,10.30
2023-02-06T15:30:56.358Z,10.30
2023-02-06T15:33:28.677Z,10.50
2023-02-06T15:35:56.570Z,10.50
2023-02-06T15:38:26.780Z,10.50
2023-02-06T15:40:55.560Z,10.50
2023-02-06T15:43:25.522Z,10.30
2023-02-06T15:45:55.129Z,10.30
2023-02-06T15:48:34.151Z,10.10
2023-02-06T15:51:02.489Z,10.10
2023-02-06T15:53:31.219Z,10.00
2023-02-06T15:55:58.752Z,9.90
2023-02-06T15:58:26.425Z,9.80
2023-02-06T16:00:55.270Z,9.70
2023-02-06T16:03:24.133Z,9.60
2023-02-06T16:05:51.557Z,9.60
2023-02-06T16:08:20.596Z,9.50
2023-02-06T16:10:55.843Z,9.50
2023-02-06T16:13:25.134Z,9.60
2023-02-06T16:16:08.427Z,9.60
2023-02-06T16:18:36.621Z,9.60
2023-02-06T16:21:15.156Z,9.60
2023-02-06T16:23:54.535Z,9.50
2023-02-06T16:26:27.065Z,9.50
2023-02-06T16:28:58.756Z,9.40
2023-02-06T16:31:28.326Z,9.40
2023-02-06T16:34:03.847Z,9.30
2023-02-06T16:36:33.298Z,9.20
2023-02-06T16:39:04.343Z,9.20
2023-02-06T16:41:31.917Z,9.10
2023-02-06T16:46:45.501Z,9.00
2023-02-06T16:49:16.539Z,9.00
2023-02-06T16:51:44.551Z,8.90
2023-02-06T16:54:25.187Z,8.70
2023-02-06T16:59:57.825Z,8.70
2023-02-06T17:02:26.661Z,8.70
2023-02-06T17:14:04.034Z,8.70
2023-02-06T17:28:26.574Z,8.60
2023-02-06T17:34:03.421Z,8.50
2023-02-06T17:36:32.558Z,8.40
2023-02-06T17:52:17.649Z,8.20
2023-02-06T17:54:53.477Z,8.10
2023-02-06T18:21:33.236Z,8.10
2023-02-06T20:05:10.847Z,5.40
2023-02-06T20:17:47.480Z,5.20
2023-02-06T20:20:14.536Z,5.10
2023-02-06T20:26:43.034Z,5.10
2023-02-06T20:35:32.364Z,5.00
2023-02-06T20:37:59.493Z,4.80
2023-02-06T20:40:26.438Z,4.60
2023-02-06T20:42:53.299Z,4.50
2023-02-06T20:45:20.528Z,4.50
2023-02-06T20:47:47.425Z,4.50
2023-02-06T20:50:14.746Z,4.60
2023-02-06T20:52:41.787Z,4.60
2023-02-06T20:55:09.367Z,4.60
2023-02-06T20:57:36.621Z,4.60
2023-02-06T21:00:05.254Z,4.60
2023-02-06T21:02:32.233Z,4.60
2023-02-06T21:04:59.364Z,4.60
2023-02-06T21:07:26.892Z,4.60
2023-02-06T21:09:53.924Z,4.60
2023-02-06T21:12:20.915Z,4.60
2023-02-06T21:14:47.834Z,4.60
2023-02-06T21:17:17.651Z,4.60
2023-02-06T21:19:44.537Z,4.60
2023-02-06T21:22:11.549Z,4.60
2023-02-06T21:24:38.492Z,4.50
2023-02-06T21:27:05.390Z,4.40
2023-02-06T21:29:32.393Z,4.30
2023-02-06T21:32:12.548Z,4.30
2023-02-06T21:34:40.829Z,4.30
2023-02-06T21:37:07.787Z,4.30
2023-02-06T21:39:34.793Z,4.40
2023-02-06T21:42:01.891Z,4.40
2023-02-06T21:44:29.112Z,4.30
2023-02-06T21:46:56.626Z,4.30
2023-02-06T21:49:24.004Z,4.30
2023-02-06T21:51:51.713Z,4.20
2023-02-06T21:54:18.828Z,4.20
2023-02-06T21:56:45.888Z,4.20
2023-02-06T21:59:12.897Z,4.20
2023-02-06T22:01:41.392Z,4.20
2023-02-06T22:04:09.229Z,4.20
2023-02-06T22:06:39.314Z,4.20
2023-02-06T22:09:10.174Z,4.20
2023-02-06T22:11:38.485Z,4.20
2023-02-06T22:14:07.734Z,4.10
2023-02-06T22:16:34.779Z,4.00
2023-02-06T22:19:01.778Z,4.00
2023-02-06T22:21:29.674Z,3.90
2023-02-06T22:23:57.908Z,3.90
2023-02-06T22:26:25.480Z,3.90
2023-02-06T22:28:52.380Z,4.00
2023-02-06T22:31:20.751Z,4.00
2023-02-06T22:33:48.369Z,4.00
2023-02-06T22:36:17.048Z,3.90
2023-02-06T22:38:44.513Z,3.90
2023-02-06T22:41:12.696Z,3.90
2023-02-06T22:43:39.947Z,4.00
2023-02-06T22:46:07.151Z,4.00
2023-02-06T22:48:34.618Z,4.00
2023-02-06T22:51:08.512Z,4.00
2023-02-06T22:53:36.542Z,4.10
2023-02-06T22:56:23.670Z,4.10
2023-02-06T22:58:51.217Z,4.10
2023-02-06T23:01:19.753Z,4.20
2023-02-06T23:03:46.821Z,4.10
2023-02-06T23:06:15.092Z,4.10
2023-02-06T23:08:43.042Z,4.10
2023-02-06T23:11:10.513Z,4.10
2023-02-06T23:13:37.788Z,4.10
2023-02-06T23:16:05.172Z,4.20
2023-02-06T23:18:32.475Z,4.10
2023-02-06T23:21:00.808Z,4.10
2023-02-06T23:23:28.099Z,4.00
2023-02-06T23:25:55.093Z,4.00
2023-02-06T23:28:22.613Z,3.90
2023-02-06T23:30:49.833Z,3.80
2023-02-06T23:33:16.781Z,3.80
2023-02-06T23:35:43.796Z,3.90
2023-02-06T23:38:13.305Z,3.90
2023-02-06T23:40:41.524Z,3.90
2023-02-06T23:43:08.472Z,4.00
2023-02-06T23:45:35.778Z,3.90
2023-02-06T23:48:02.865Z,3.90
2023-02-06T23:50:30.115Z,3.90
2023-02-06T23:52:57.109Z,3.80
2023-02-06T23:55:28.111Z,3.80
2023-02-06T23:57:55.038Z,3.70
